createdAt,value
2023-08-02T04:01:09.310Z,14.37
2023-08-02T04:02:09.761Z,14.37
2023-08-02T04:03:08.087Z,14.36
2023-08-02T04:04:08.071Z,14.37
2023-08-02T04:05:07.183Z,14.40
2023-08-02T04:06:08.219Z,14.43
2023-08-02T04:07:08.210Z,14.43
2023-08-02T04:08:08.063Z,14.43
2023-08-02T04:09:08.158Z,14.45
2023-08-02T04:10:08.099Z,14.46
2023-08-02T04:11:08.011Z,14.42
2023-08-02T04:12:08.062Z,14.46
2023-08-02T04:13:07.936Z,14.43
2023-08-02T04:14:08.186Z,14.45
2023-08-02T04:15:07.881Z,14.46
2023-08-02T04:16:08.060Z,14.50
2023-08-02T04:17:07.847Z,14.52
2023-08-02T04:18:07.837Z,14.52
2023-08-02T04:19:08.365Z,14.51
2023-08-02T04:20:09.802Z,14.52
2023-08-02T04:21:08.175Z,14.51
2023-08-02T04:22:08.216Z,14.55
2023-08-02T04:23:07.845Z,14.57
2023-08-02T04:24:09.210Z,14.58
2023-08-02T04:25:07.808Z,14.57
2023-08-02T04:26:07.773Z,14.60
2023-08-02T04:27:07.920Z,14.58
2023-08-02T04:28:08.146Z,14.60
2023-08-02T04:29:08.081Z,14.58
2023-08-02T04:30:07.768Z,14.58
2023-08-02T04:31:07.875Z,14.60
2023-08-02T04:32:08.300Z,14.62
2023-08-02T04:33:08.954Z,14.61
2023-08-02T04:34:07.843Z,14.65
2023-08-02T04:35:07.844Z,14.69
2023-08-02T04:36:07.663Z,14.64
2023-08-02T04:37:07.785Z,14.68
2023-08-02T04:38:07.674Z,14.73
2023-08-02T04:39:07.780Z,14.73
2023-08-02T04:40:07.611Z,14.81
2023-08-02T04:41:07.911Z,14.81
2023-08-02T04:42:07.766Z,14.84
2023-08-02T04:43:07.823Z,14.88
2023-08-02T04:44:07.708Z,14.92
2023-08-02T04:45:07.713Z,14.96
2023-08-02T04:46:07.865Z,15.01
2023-08-02T04:47:07.550Z,15.03
2023-08-02T04:48:07.683Z,15.07
2023-08-02T04:49:07.567Z,15.07
2023-08-02T04:50:07.537Z,15.09
2023-08-02T04:51:07.671Z,15.09
2023-08-02T04:52:07.662Z,15.13
2023-08-02T04:53:07.549Z,15.07
2023-08-02T04:54:07.519Z,15.07
2023-08-02T04:55:07.535Z,15.10
2023-08-02T04:56:07.470Z,15.09
2023-08-02T04:57:08.143Z,15.10
2023-08-02T04:58:08.187Z,15.11
2023-08-02T04:59:10.117Z,15.10
2023-08-02T05:00:11.541Z,15.14
2023-08-02T05:01:07.989Z,15.16
2023-08-02T05:02:08.290Z,15.21
2023-08-02T05:03:07.555Z,15.21
2023-08-02T05:04:07.626Z,15.20
2023-08-02T05:05:07.516Z,15.19
2023-08-02T05:06:07.696Z,15.19
2023-08-02T05:07:07.292Z,15.21
2023-08-02T05:08:07.373Z,15.28
2023-08-02T05:09:07.493Z,15.32
2023-08-02T05:10:07.442Z,15.31
2023-08-02T05:11:12.748Z,15.31
2023-08-02T05:12:08.554Z,15.29
2023-08-02T05:13:08.672Z,15.34
2023-08-02T05:14:07.744Z,15.36
2023-08-02T05:15:07.379Z,15.38
2023-08-02T05:16:07.809Z,15.38
2023-08-02T05:17:07.187Z,15.46
2023-08-02T05:18:07.346Z,15.49
2023-08-02T05:19:08.370Z,15.50
2023-08-02T05:20:09.471Z,15.53
2023-08-02T05:21:07.208Z,15.53
2023-08-02T05:22:07.557Z,15.50
2023-08-02T05:23:12.647Z,15.59
2023-08-02T05:24:07.501Z,15.64
2023-08-02T05:25:08.112Z,15.67
2023-08-02T05:26:07.297Z,15.76
2023-08-02T05:27:07.262Z,15.82
2023-08-02T05:28:07.436Z,15.86
2023-08-02T05:29:08.481Z,15.92
2023-08-02T05:30:07.566Z,16.02
2023-08-02T05:31:07.316Z,16.08
2023-08-02T05:32:07.590Z,16.09
2023-08-02T05:33:08.861Z,16.11
2023-08-02T05:34:07.191Z,16.11
2023-08-02T05:35:07.210Z,16.11
2023-08-02T05:36:07.071Z,16.14
2023-08-02T05:37:07.071Z,16.17
2023-08-02T05:38:07.167Z,16.20
2023-08-02T05:39:08.191Z,16.15
2023-08-02T05:40:07.140Z,16.17
2023-08-02T05:41:07.297Z,16.20
2023-08-02T05:42:07.031Z,16.21
2023-08-02T05:43:07.223Z,16.25
2023-08-02T05:44:07.079Z,16.23
2023-08-02T05:45:08.152Z,16.30
2023-08-02T05:46:07.173Z,16.31
2023-08-02T05:47:07.136Z,16.33
2023-08-02T05:48:07.181Z,16.33
2023-08-02T05:49:06.978Z,16.31
2023-08-02T05:50:07.622Z,16.31
2023-08-02T05:51:07.148Z,16.33
2023-08-02T05:52:07.165Z,16.33
2023-08-02T05:53:06.947Z,16.34
2023-08-02T05:54:07.148Z,16.35
2023-08-02T05:55:07.063Z,16.38
2023-08-02T05:56:06.965Z,16.39
2023-08-02T05:57:07.252Z,16.39
2023-08-02T05:58:08.065Z,16.42
2023-08-02T05:59:07.677Z,16.50
2023-08-02T06:00:06.737Z,16.46
2023-08-02T06:01:07.817Z,16.48
2023-08-02T06:02:06.931Z,16.52
2023-08-02T06:03:07.215Z,16.58
2023-08-02T06:04:08.263Z,16.61
2023-08-02T06:05:06.771Z,16.64
2023-08-02T06:06:06.829Z,16.67
2023-08-02T06:07:06.928Z,16.70
2023-08-02T06:08:06.884Z,16.71
2023-08-02T06:09:09.691Z,16.78
2023-08-02T06:10:06.963Z,16.82
2023-08-02T06:11:07.346Z,16.86
2023-08-02T06:12:06.744Z,16.89
2023-08-02T06:13:06.987Z,16.94
2023-08-02T06:14:06.656Z,16.97
2023-08-02T06:15:06.989Z,16.98
2023-08-02T06:16:07.710Z,16.96
2023-08-02T06:17:06.689Z,16.97
2023-08-02T06:18:06.632Z,16.96
2023-08-02T06:19:06.902Z,16.93
2023-08-02T06:20:06.953Z,16.96
2023-08-02T06:21:06.790Z,16.91
2023-08-02T06:22:06.539Z,16.94
2023-08-02T06:23:06.620Z,17.03
2023-08-02T06:24:06.618Z,17.07
2023-08-02T06:25:06.689Z,17.14
2023-08-02T06:26:06.525Z,17.19
2023-08-02T06:27:06.526Z,17.22
2023-08-02T06:28:06.569Z,17.22
2023-08-02T06:29:06.505Z,17.18
2023-08-02T06:30:06.795Z,17.18
2023-08-02T06:31:06.606Z,17.21
2023-08-02T06:32:06.504Z,17.15
2023-08-02T06:33:06.514Z,17.11
2023-08-02T06:34:06.534Z,17.12
2023-08-02T06:35:06.446Z,17.11
2023-08-02T06:36:06.378Z,17.12
2023-08-02T06:37:06.458Z,17.11
2023-08-02T06:38:06.396Z,17.14
2023-08-02T06:39:06.382Z,17.14
2023-08-02T06:40:06.637Z,17.19
2023-08-02T06:41:06.584Z,17.18
2023-08-02T06:42:06.375Z,17.19
2023-08-02T06:43:06.680Z,17.22
2023-08-02T06:44:06.297Z,17.28
2023-08-02T06:45:05.514Z,17.37
2023-08-02T06:46:06.405Z,17.34
2023-08-02T06:47:06.337Z,17.43
2023-08-02T06:48:06.497Z,17.40
2023-08-02T06:49:06.419Z,17.54
2023-08-02T06:50:06.345Z,17.49
2023-08-02T06:51:06.407Z,17.56
2023-08-02T06:52:06.533Z,17.58
2023-08-02T06:53:06.220Z,17.70
2023-08-02T06:54:06.310Z,17.75
2023-08-02T06:55:06.461Z,17.74
2023-08-02T06:56:06.388Z,17.72
2023-08-02T06:57:05.276Z,17.77
2023-08-02T06:58:06.360Z,17.79
2023-08-02T06:59:07.517Z,17.87
2023-08-02T07:00:06.252Z,17.93
2023-08-02T07:01:06.292Z,17.93
2023-08-02T07:02:06.766Z,17.93
2023-08-02T07:03:06.300Z,17.86
2023-08-02T07:04:06.187Z,17.74
2023-08-02T07:05:08.395Z,17.74
2023-08-02T07:06:06.270Z,17.74
2023-08-02T07:07:06.296Z,17.70
2023-08-02T07:08:06.128Z,17.72
2023-08-02T07:09:06.036Z,17.59
2023-08-02T07:10:06.038Z,17.55
2023-08-02T07:11:06.021Z,17.58
2023-08-02T07:12:06.059Z,17.51
2023-08-02T07:13:06.175Z,17.49
2023-08-02T07:14:06.295Z,17.46
2023-08-02T07:15:06.115Z,17.44
2023-08-02T07:16:06.097Z,17.40
2023-08-02T07:17:06.142Z,17.33
2023-08-02T07:18:06.086Z,17.28
2023-08-02T07:19:06.093Z,17.21
2023-08-02T07:20:05.975Z,17.08
2023-08-02T07:21:06.012Z,17.00
2023-08-02T07:22:06.111Z,16.91
2023-08-02T07:23:06.252Z,16.83
2023-08-02T07:24:06.154Z,16.75
2023-08-02T07:25:06.492Z,16.70
2023-08-02T07:26:06.407Z,16.64
2023-08-02T07:27:06.087Z,16.56
2023-08-02T07:28:05.969Z,16.50
2023-08-02T07:29:06.239Z,16.52
2023-08-02T07:30:06.232Z,16.46
2023-08-02T07:31:15.529Z,16.46
2023-08-02T07:32:06.071Z,16.48
2023-08-02T07:33:07.414Z,16.42
2023-08-02T07:34:05.834Z,16.43
2023-08-02T07:35:07.041Z,16.45
2023-08-02T07:36:06.013Z,16.45
2023-08-02T07:37:06.363Z,16.45
2023-08-02T07:38:06.100Z,16.48
2023-08-02T07:39:06.009Z,16.48
2023-08-02T07:40:05.845Z,16.42
2023-08-02T07:41:06.201Z,16.46
2023-08-02T07:42:05.920Z,16.50
2023-08-02T07:43:05.765Z,16.56
2023-08-02T07:44:05.864Z,16.52
2023-08-02T07:45:06.006Z,16.56
2023-08-02T07:46:05.877Z,16.58
2023-08-02T07:47:05.829Z,16.50
2023-08-02T07:48:05.669Z,16.49
2023-08-02T07:49:05.785Z,16.42
2023-08-02T07:50:05.665Z,16.38
2023-08-02T07:51:05.722Z,16.34
2023-08-02T07:52:05.582Z,16.41
2023-08-02T07:53:05.936Z,16.39
2023-08-02T07:54:05.894Z,16.41
2023-08-02T07:55:05.772Z,16.39
2023-08-02T07:56:05.694Z,16.43
2023-08-02T07:57:05.831Z,16.43
2023-08-02T07:58:05.705Z,16.46
2023-08-02T07:59:05.684Z,16.48
2023-08-02T08:00:05.706Z,16.50
2023-08-02T08:01:06.064Z,16.49
2023-08-02T08:02:05.531Z,16.48
2023-08-02T08:03:05.474Z,16.52
2023-08-02T08:04:05.627Z,16.61
2023-08-02T08:05:05.713Z,16.75
2023-08-02T08:06:06.069Z,16.85
2023-08-02T08:07:06.348Z,16.86
2023-08-02T08:08:06.183Z,16.88
2023-08-02T08:09:05.458Z,16.83
2023-08-02T08:10:05.414Z,16.82
2023-08-02T08:11:05.366Z,16.83
2023-08-02T08:12:05.361Z,16.86
2023-08-02T08:13:05.323Z,16.83
2023-08-02T08:14:05.435Z,16.88
2023-08-02T08:15:05.411Z,16.97
2023-08-02T08:16:05.476Z,17.00
2023-08-02T08:17:05.465Z,17.04
2023-08-02T08:18:06.377Z,17.14
2023-08-02T08:19:05.303Z,17.15
2023-08-02T08:20:05.448Z,17.16
2023-08-02T08:21:05.756Z,17.14
2023-08-02T08:22:06.356Z,17.18
2023-08-02T08:23:05.331Z,17.11
2023-08-02T08:24:05.210Z,17.12
2023-08-02T08:25:05.237Z,17.14
2023-08-02T08:26:05.187Z,17.21
2023-08-02T08:27:05.178Z,17.21
2023-08-02T08:28:05.178Z,17.16
2023-08-02T08:29:05.145Z,17.31
2023-08-02T08:30:05.156Z,17.37
2023-08-02T08:31:05.184Z,17.43
2023-08-02T08:32:05.275Z,17.40
2023-08-02T08:33:05.182Z,17.33
2023-08-02T08:34:05.282Z,17.36
2023-08-02T08:35:05.196Z,17.37
2023-08-02T08:36:05.215Z,17.40
2023-08-02T08:37:05.432Z,17.34
2023-08-02T08:38:05.245Z,17.33
2023-08-02T08:39:05.273Z,17.37
2023-08-02T08:40:14.115Z,17.34
2023-08-02T08:41:05.128Z,17.22
2023-08-02T08:42:05.312Z,17.16
2023-08-02T08:43:05.291Z,17.16
2023-08-02T08:44:05.204Z,17.12
2023-08-02T08:45:05.141Z,17.12
2023-08-02T08:46:05.256Z,17.07
2023-08-02T08:47:05.171Z,17.06
2023-08-02T08:48:05.060Z,17.01
2023-08-02T08:49:05.023Z,17.08
2023-08-02T08:50:04.987Z,17.18
2023-08-02T08:51:05.359Z,17.25
2023-08-02T08:52:04.968Z,17.28
2023-08-02T08:53:05.018Z,17.28
2023-08-02T08:54:05.039Z,17.28
2023-08-02T08:55:04.904Z,17.34
2023-08-02T08:56:05.080Z,17.43
2023-08-02T08:57:05.373Z,17.43
2023-08-02T08:58:10.396Z,17.58
2023-08-02T08:59:04.955Z,17.62
2023-08-02T09:00:04.974Z,17.66
2023-08-02T09:01:05.065Z,17.82
2023-08-02T09:02:05.016Z,17.90
2023-08-02T09:03:05.001Z,17.90
2023-08-02T09:04:05.009Z,18.00
2023-08-02T09:05:04.852Z,17.93
2023-08-02T09:06:05.082Z,17.93
2023-08-02T09:07:04.775Z,17.87
2023-08-02T09:08:04.969Z,17.84
2023-08-02T09:09:04.752Z,17.78
2023-08-02T09:10:04.826Z,17.71
2023-08-02T09:11:04.810Z,17.71
2023-08-02T09:12:05.844Z,17.78
2023-08-02T09:13:05.092Z,17.74
2023-08-02T09:14:04.760Z,17.78
2023-08-02T09:15:04.709Z,17.89
2023-08-02T09:16:04.744Z,17.93
2023-08-02T09:17:04.835Z,17.99
2023-08-02T09:18:04.933Z,18.00
2023-08-02T09:19:04.694Z,18.02
2023-08-02T09:20:04.659Z,17.93
2023-08-02T09:21:05.360Z,17.96
2023-08-02T09:22:05.344Z,18.00
2023-08-02T09:23:05.486Z,17.96
2023-08-02T09:24:06.875Z,17.87
2023-08-02T09:25:04.711Z,17.75
2023-08-02T09:26:04.727Z,17.74
2023-08-02T09:27:04.743Z,17.66
2023-08-02T09:28:04.612Z,17.68
2023-08-02T09:29:04.720Z,17.59
2023-08-02T09:30:04.632Z,17.55
2023-08-02T09:31:05.391Z,17.54
2023-08-02T09:32:04.559Z,17.49
2023-08-02T09:33:06.973Z,17.44
2023-08-02T09:34:04.692Z,17.38
2023-08-02T09:35:04.548Z,17.34
2023-08-02T09:36:04.480Z,17.36
2023-08-02T09:37:04.515Z,17.38
2023-08-02T09:38:04.534Z,17.37
2023-08-02T09:39:04.435Z,17.40
2023-08-02T09:40:04.469Z,17.38
2023-08-02T09:42:05.270Z,17.41
2023-08-02T09:43:04.378Z,17.38
2023-08-02T09:44:04.466Z,17.37
2023-08-02T09:45:04.377Z,17.44
2023-08-02T09:46:04.408Z,17.51
2023-08-02T09:47:04.601Z,17.49
2023-08-02T09:48:04.414Z,17.46
2023-08-02T09:49:04.325Z,17.43
2023-08-02T09:50:04.662Z,17.41
2023-08-02T09:51:04.524Z,17.43
2023-08-02T09:52:04.344Z,17.52
2023-08-02T09:53:04.282Z,17.54
2023-08-02T09:54:04.270Z,17.56
2023-08-02T09:55:04.271Z,17.58
2023-08-02T09:56:04.237Z,17.54
2023-08-02T09:57:04.369Z,17.48
2023-08-02T09:58:04.191Z,17.51
2023-08-02T09:59:04.269Z,17.54
2023-08-02T10:00:04.177Z,17.56
2023-08-02T10:01:04.346Z,17.58
2023-08-02T10:02:04.323Z,17.59
2023-08-02T10:03:15.627Z,17.54
2023-08-02T10:04:04.150Z,17.58
2023-08-02T10:05:04.162Z,17.54
2023-08-02T10:06:04.205Z,17.54
2023-08-02T10:07:04.146Z,17.51
2023-08-02T10:08:04.146Z,17.59
2023-08-02T10:09:04.194Z,17.66
2023-08-02T10:10:04.076Z,17.78
2023-08-02T10:11:04.124Z,17.87
2023-08-02T10:12:04.067Z,17.90
2023-08-02T10:13:04.034Z,17.79
2023-08-02T10:14:04.084Z,17.81
2023-08-02T10:15:04.119Z,17.84
2023-08-02T10:16:04.072Z,17.95
2023-08-02T10:17:04.086Z,18.05
2023-08-02T10:18:04.036Z,18.11
2023-08-02T10:19:04.066Z,18.25
2023-08-02T10:20:04.045Z,18.47
2023-08-02T10:21:03.974Z,18.78
2023-08-02T10:22:04.074Z,18.95
2023-08-02T10:23:04.010Z,18.88
2023-08-02T10:24:03.961Z,18.69
2023-08-02T10:25:03.943Z,18.60
2023-08-02T10:26:03.973Z,18.65
2023-08-02T10:27:03.920Z,18.51
2023-08-02T10:28:04.146Z,18.52
2023-08-02T10:29:03.900Z,18.54
2023-08-02T10:30:03.879Z,18.95
2023-08-02T10:31:03.894Z,19.00
2023-08-02T10:32:03.890Z,19.00
2023-08-02T10:33:04.020Z,19.22
2023-08-02T10:34:03.862Z,19.10
2023-08-02T10:35:03.838Z,19.13
2023-08-02T10:36:03.844Z,19.10
2023-08-02T10:37:03.840Z,19.23
2023-08-02T10:38:03.776Z,19.29
2023-08-02T10:39:03.859Z,19.47
2023-08-02T10:40:03.872Z,19.44
2023-08-02T10:41:03.974Z,19.66
2023-08-02T10:42:03.798Z,19.58
2023-08-02T10:43:03.805Z,19.62
2023-08-02T10:44:03.760Z,19.61
2023-08-02T10:45:03.833Z,19.68
2023-08-02T10:46:03.741Z,19.54
2023-08-02T10:47:03.779Z,19.48
2023-08-02T10:48:03.842Z,19.36
2023-08-02T10:49:03.729Z,19.37
2023-08-02T10:50:03.671Z,19.32
2023-08-02T10:51:03.717Z,19.41
2023-08-02T10:52:03.689Z,19.47
2023-08-02T10:53:03.705Z,19.51
2023-08-02T10:54:03.861Z,19.58
2023-08-02T10:55:03.765Z,19.77
2023-08-02T10:56:03.654Z,19.71
2023-08-02T10:57:03.647Z,19.62
2023-08-02T10:58:03.621Z,19.59
2023-08-02T10:59:03.612Z,19.55
2023-08-02T11:00:04.154Z,19.62
2023-08-02T11:01:04.202Z,19.62
2023-08-02T11:02:03.634Z,19.66
2023-08-02T11:03:03.718Z,19.54
2023-08-02T11:04:03.680Z,19.50
2023-08-02T11:05:03.625Z,19.58
2023-08-02T11:06:03.552Z,19.63
2023-08-02T11:07:03.570Z,19.69
2023-08-02T11:08:03.538Z,19.66
2023-08-02T11:09:03.543Z,19.74
2023-08-02T11:10:03.678Z,19.76
2023-08-02T11:11:03.460Z,19.76
2023-08-02T11:12:03.643Z,19.73
2023-08-02T11:13:03.523Z,19.65
2023-08-02T11:14:03.447Z,19.54
2023-08-02T11:15:03.509Z,19.48
2023-08-02T11:16:03.630Z,19.47
2023-08-02T11:17:13.451Z,19.47
2023-08-02T11:18:03.661Z,19.37
2023-08-02T11:19:03.497Z,19.39
2023-08-02T11:20:06.722Z,19.40
2023-08-02T11:21:03.417Z,19.40
2023-08-02T11:22:03.351Z,19.33
2023-08-02T11:23:03.359Z,19.41
2023-08-02T11:24:03.352Z,19.44
2023-08-02T11:25:03.434Z,19.46
2023-08-02T11:27:03.675Z,19.22
2023-08-02T11:28:03.256Z,19.19
2023-08-02T11:29:03.330Z,19.08
2023-08-02T11:30:03.356Z,19.07
2023-08-02T11:31:03.685Z,19.00
2023-08-02T11:32:03.285Z,19.07
2023-08-02T11:33:03.339Z,19.04
2023-08-02T11:34:03.268Z,19.02
2023-08-02T11:35:03.244Z,19.02
2023-08-02T11:36:03.237Z,19.06
2023-08-02T11:37:03.174Z,19.04
2023-08-02T11:38:03.213Z,19.06
2023-08-02T11:39:03.540Z,19.11
2023-08-02T11:41:03.559Z,19.10
2023-08-02T11:42:03.226Z,19.18
2023-08-02T11:43:06.783Z,19.08
2023-08-02T11:44:03.154Z,19.08
2023-08-02T11:45:14.768Z,19.08
2023-08-02T11:46:03.323Z,19.13
2023-08-02T11:47:03.091Z,19.21
2023-08-02T11:49:03.150Z,19.19
2023-08-02T11:50:03.046Z,19.21
2023-08-02T11:51:03.254Z,19.32
2023-08-02T11:52:03.149Z,19.29
2023-08-02T11:53:03.092Z,19.66
2023-08-02T11:54:03.036Z,20.51
2023-08-02T11:55:03.019Z,20.72
2023-08-02T11:56:03.020Z,20.69
2023-08-02T11:57:03.054Z,20.84
2023-08-02T11:58:02.970Z,21.03
2023-08-02T11:59:03.124Z,21.24
2023-08-02T12:00:02.915Z,21.43
2023-08-02T12:01:02.958Z,22.03
2023-08-02T12:02:03.026Z,22.46
2023-08-02T12:03:03.017Z,22.83
2023-08-02T12:04:02.946Z,22.51
2023-08-02T12:05:02.900Z,21.96
2023-08-02T12:06:02.998Z,21.64
2023-08-02T12:07:02.915Z,22.21
2023-08-02T12:08:02.905Z,22.20
2023-08-02T12:09:03.536Z,21.74
2023-08-02T12:10:02.892Z,21.04
2023-08-02T12:11:02.815Z,21.03
2023-08-02T12:12:02.833Z,20.91
2023-08-02T12:13:02.864Z,21.13
2023-08-02T12:14:02.769Z,21.10
2023-08-02T12:15:02.840Z,21.22
2023-08-02T12:16:03.065Z,21.34
2023-08-02T12:17:02.859Z,21.17
2023-08-02T12:18:02.818Z,21.14
2023-08-02T12:19:02.825Z,21.01
2023-08-02T12:20:02.747Z,20.85
2023-08-02T12:21:02.817Z,20.91
2023-08-02T12:22:02.865Z,21.09
2023-08-02T12:23:02.734Z,21.12
2023-08-02T12:24:02.742Z,21.21
2023-08-02T12:25:02.731Z,21.17
2023-08-02T12:26:02.769Z,21.14
2023-08-02T12:27:02.689Z,21.34
2023-08-02T12:28:02.671Z,21.47
2023-08-02T12:29:02.743Z,21.27
2023-08-02T12:30:02.671Z,21.35
2023-08-02T12:31:02.670Z,21.42
2023-08-02T12:32:02.669Z,21.56
2023-08-02T12:33:02.691Z,21.68
2023-08-02T12:34:02.619Z,21.86
2023-08-02T12:35:11.744Z,21.62
2023-08-02T12:36:02.657Z,21.42
2023-08-02T12:37:02.588Z,21.24
2023-08-02T12:38:02.603Z,21.21
2023-08-02T12:39:02.535Z,21.28
2023-08-02T12:40:02.581Z,21.69
2023-08-02T12:41:02.589Z,21.96
2023-08-02T12:42:02.475Z,21.98
2023-08-02T12:43:03.648Z,21.99
2023-08-02T12:44:05.725Z,22.14
2023-08-02T12:45:15.292Z,22.60
2023-08-02T12:46:02.510Z,22.76
2023-08-02T12:47:02.444Z,22.67
2023-08-02T12:48:02.677Z,22.72
2023-08-02T12:49:02.416Z,22.58
2023-08-02T12:50:02.669Z,22.12
2023-08-02T12:51:02.464Z,21.75
2023-08-02T12:52:02.386Z,21.71
2023-08-02T12:53:02.503Z,21.88
2023-08-02T12:54:02.608Z,21.98
2023-08-02T12:55:02.398Z,22.28
2023-08-02T12:56:02.391Z,22.39
2023-08-02T12:57:02.462Z,22.58
2023-08-02T12:58:02.402Z,22.79
2023-08-02T12:59:02.576Z,22.88
2023-08-02T13:00:02.486Z,22.65
2023-08-02T13:01:02.529Z,22.39
2023-08-02T13:02:02.329Z,22.33
2023-08-02T13:03:02.420Z,22.24
2023-08-02T13:04:02.420Z,22.10
2023-08-02T13:05:02.327Z,21.91
2023-08-02T13:06:02.481Z,21.72
2023-08-02T13:07:02.539Z,21.79
2023-08-02T13:08:02.241Z,22.02
2023-08-02T13:09:02.207Z,22.06
2023-08-02T13:10:02.175Z,22.06
2023-08-02T13:11:02.634Z,21.94
2023-08-02T13:12:08.213Z,21.88
2023-08-02T13:13:02.243Z,21.86
2023-08-02T13:14:02.282Z,21.72
2023-08-02T13:15:02.236Z,21.62
2023-08-02T13:16:02.934Z,21.59
2023-08-02T13:17:02.156Z,21.62
2023-08-02T13:18:02.233Z,21.82
2023-08-02T13:19:02.136Z,22.09
2023-08-02T13:20:02.154Z,22.15
2023-08-02T13:21:02.595Z,22.09
2023-08-02T13:22:02.280Z,22.06
2023-08-02T13:23:02.175Z,22.10
2023-08-02T13:24:02.151Z,22.17
2023-08-02T13:25:02.247Z,22.40
2023-08-02T13:26:02.056Z,22.55
2023-08-02T13:27:02.388Z,22.62
2023-08-02T13:28:02.064Z,22.46
2023-08-02T13:29:02.013Z,22.47
2023-08-02T13:30:02.228Z,22.39
2023-08-02T13:31:02.281Z,22.33
2023-08-02T13:32:02.112Z,22.12
2023-08-02T13:33:02.042Z,22.21
2023-08-02T13:34:02.069Z,22.12
2023-08-02T13:35:04.237Z,22.06
2023-08-02T13:36:02.022Z,22.07
2023-08-02T13:37:01.954Z,21.94
2023-08-02T13:38:02.140Z,21.72
2023-08-02T13:39:01.933Z,21.62
2023-08-02T13:40:02.125Z,21.61
2023-08-02T13:41:01.943Z,21.49
2023-08-02T13:42:01.941Z,21.50
2023-08-02T13:43:02.228Z,21.53
2023-08-02T13:44:01.887Z,21.65
2023-08-02T13:45:01.886Z,21.64
2023-08-02T13:46:01.902Z,21.71
2023-08-02T13:47:01.888Z,21.65
2023-08-02T13:48:01.952Z,21.52
2023-08-02T13:49:02.001Z,21.62
2023-08-02T13:50:01.921Z,21.67
2023-08-02T13:51:01.972Z,21.47
2023-08-02T13:52:01.804Z,21.42
2023-08-02T13:53:01.733Z,21.38
2023-08-02T13:54:01.803Z,21.52
2023-08-02T13:55:01.770Z,21.49
2023-08-02T13:56:01.841Z,21.53
2023-08-02T13:57:01.762Z,21.53
2023-08-02T13:58:01.715Z,21.50
2023-08-02T13:59:04.269Z,21.28
2023-08-02T14:00:01.735Z,21.12
2023-08-02T14:01:02.063Z,21.07
2023-08-02T14:02:01.668Z,21.10
2023-08-02T14:03:01.936Z,20.99
2023-08-02T14:04:01.873Z,20.95
2023-08-02T14:05:02.395Z,20.91
2023-08-02T14:06:01.788Z,20.79
2023-08-02T14:07:01.658Z,20.77
2023-08-02T14:08:01.670Z,20.72
2023-08-02T14:09:01.847Z,20.59
2023-08-02T14:10:01.598Z,20.55
2023-08-02T14:11:01.624Z,20.51
2023-08-02T14:12:01.692Z,20.41
2023-08-02T14:13:01.591Z,20.42
2023-08-02T14:14:01.729Z,20.39
2023-08-02T14:15:01.660Z,20.28
2023-08-02T14:16:01.520Z,20.35
2023-08-02T14:17:01.758Z,20.35
2023-08-02T14:18:01.641Z,20.42
2023-08-02T14:19:01.506Z,20.51
2023-08-02T14:20:01.505Z,20.72
2023-08-02T14:21:01.557Z,20.91
2023-08-02T14:22:01.720Z,21.17
2023-08-02T14:23:01.687Z,21.35
2023-08-02T14:24:01.561Z,21.68
2023-08-02T14:25:01.945Z,21.75
2023-08-02T14:26:01.519Z,21.67
2023-08-02T14:27:01.456Z,21.38
2023-08-02T14:28:01.621Z,21.19
2023-08-02T14:29:01.330Z,20.98
2023-08-02T14:30:01.660Z,20.84
2023-08-02T14:31:01.430Z,20.70
2023-08-02T14:32:01.535Z,20.79
2023-08-02T14:33:01.370Z,20.97
2023-08-02T14:34:01.505Z,21.07
2023-08-02T14:35:01.416Z,21.21
2023-08-02T14:36:01.334Z,21.17
2023-08-02T14:37:01.646Z,21.14
2023-08-02T14:38:01.297Z,21.31
2023-08-02T14:39:01.242Z,21.16
2023-08-02T14:40:01.288Z,21.27
2023-08-02T14:41:01.308Z,21.17
2023-08-02T14:42:01.444Z,21.21
2023-08-02T14:43:01.227Z,21.17
2023-08-02T14:44:01.286Z,21.22
2023-08-02T14:45:01.218Z,21.09
2023-08-02T14:46:03.529Z,21.03
2023-08-02T14:47:01.363Z,20.95
2023-08-02T14:48:01.422Z,20.85
2023-08-02T14:49:01.184Z,20.82
2023-08-02T14:50:01.436Z,20.80
2023-08-02T14:51:01.221Z,20.79
2023-08-02T14:52:01.347Z,20.72
2023-08-02T14:53:01.066Z,20.66
2023-08-02T14:54:12.502Z,20.54
2023-08-02T14:55:01.388Z,20.57
2023-08-02T14:56:01.065Z,20.58
2023-08-02T14:57:01.068Z,20.58
2023-08-02T14:58:01.221Z,20.70
2023-08-02T14:59:01.033Z,20.91
2023-08-02T15:00:01.337Z,20.95
2023-08-02T15:01:01.187Z,20.94
2023-08-02T15:02:01.171Z,21.06
2023-08-02T15:03:00.987Z,21.10
2023-08-02T15:04:01.148Z,21.10
2023-08-02T15:05:01.253Z,21.19
2023-08-02T15:06:01.413Z,21.38
2023-08-02T15:07:01.032Z,21.54
2023-08-02T15:08:01.140Z,21.64
2023-08-02T15:09:01.176Z,21.75
2023-08-02T15:10:01.182Z,21.71
2023-08-02T15:11:01.233Z,21.56
2023-08-02T15:12:00.985Z,21.56
2023-08-02T15:13:01.104Z,21.49
2023-08-02T15:14:00.995Z,21.61
2023-08-02T15:15:01.134Z,21.69
2023-08-02T15:16:01.136Z,21.84
2023-08-02T15:17:01.063Z,21.88
2023-08-02T15:18:00.840Z,21.86
2023-08-02T15:19:01.058Z,21.90
2023-08-02T15:20:01.056Z,21.94
2023-08-02T15:21:00.776Z,21.91
2023-08-02T15:22:00.966Z,22.00
2023-08-02T15:23:00.950Z,21.99
2023-08-02T15:24:01.285Z,21.91
2023-08-02T15:25:00.834Z,21.99
2023-08-02T15:26:00.885Z,22.03
2023-08-02T15:27:00.777Z,22.02
2023-08-02T15:28:00.859Z,22.18
2023-08-02T15:29:02.280Z,22.24
2023-08-02T15:30:00.991Z,22.37
2023-08-02T15:31:00.990Z,22.39
2023-08-02T15:32:01.010Z,22.37
2023-08-02T15:33:00.806Z,22.27
2023-08-02T15:34:00.767Z,22.35
2023-08-02T15:35:00.668Z,22.21
2023-08-02T15:36:00.644Z,22.21
2023-08-02T15:37:00.743Z,22.25
2023-08-02T15:38:00.692Z,22.15
2023-08-02T15:39:00.605Z,22.21
2023-08-02T15:40:00.623Z,22.25
2023-08-02T15:41:00.660Z,22.31
2023-08-02T15:42:00.652Z,22.30
2023-08-02T15:43:00.707Z,22.18
2023-08-02T15:44:00.660Z,22.18
2023-08-02T15:45:02.960Z,22.24
2023-08-02T15:46:00.805Z,22.24
2023-08-02T15:47:00.732Z,22.27
2023-08-02T15:48:00.662Z,22.36
2023-08-02T15:49:00.697Z,22.35
2023-08-02T15:50:00.671Z,22.36
2023-08-02T15:51:00.672Z,22.18
2023-08-02T15:52:00.549Z,22.30
2023-08-02T15:53:00.802Z,22.46
2023-08-02T15:54:00.690Z,22.39
2023-08-02T15:55:00.575Z,22.27
2023-08-02T15:56:00.670Z,22.25
2023-08-02T15:57:00.989Z,22.24
2023-08-02T15:58:00.615Z,22.25
2023-08-02T15:59:00.562Z,22.24
2023-08-02T16:00:00.487Z,22.25
2023-08-02T16:01:00.513Z,22.17
2023-08-02T16:02:00.519Z,22.10
2023-08-02T16:03:01.148Z,22.17
2023-08-02T16:04:00.570Z,22.25
2023-08-02T16:05:00.672Z,22.24
2023-08-02T16:06:00.438Z,22.10
2023-08-02T16:07:00.418Z,22.05
2023-08-02T16:08:00.379Z,22.09
2023-08-02T16:09:00.507Z,22.28
2023-08-02T16:10:00.464Z,22.27
2023-08-02T16:11:00.293Z,22.14
2023-08-02T16:12:00.243Z,22.02
2023-08-02T16:13:00.240Z,22.17
2023-08-02T16:14:00.253Z,22.14
2023-08-02T16:15:00.422Z,22.07
2023-08-02T16:16:00.240Z,22.20
2023-08-02T16:17:00.191Z,22.47
2023-08-02T16:18:00.251Z,22.64
2023-08-02T16:19:00.221Z,22.57
2023-08-02T16:20:00.291Z,22.46
2023-08-02T16:21:00.219Z,22.20
2023-08-02T16:22:00.167Z,22.06
2023-08-02T16:23:00.116Z,22.05
2023-08-02T16:24:00.096Z,21.80
2023-08-02T16:25:00.186Z,21.80
2023-08-02T16:26:00.114Z,21.71
2023-08-02T16:27:01.094Z,21.64
2023-08-02T16:28:00.056Z,21.46
2023-08-02T16:29:00.252Z,21.49
2023-08-02T16:30:00.255Z,21.40
2023-08-02T16:31:00.176Z,21.34
2023-08-02T16:32:00.875Z,21.32
2023-08-02T16:33:00.097Z,21.27
2023-08-02T16:34:00.241Z,21.24
2023-08-02T16:35:00.187Z,21.24
2023-08-02T16:36:00.457Z,21.27
2023-08-02T16:37:00.008Z,21.25
2023-08-02T16:38:00.210Z,21.19
2023-08-02T16:39:00.047Z,21.09
2023-08-02T16:40:00.209Z,21.09
2023-08-02T16:40:59.964Z,21.01
2023-08-02T16:42:00.080Z,20.98
2023-08-02T16:43:00.089Z,20.98
2023-08-02T16:43:59.988Z,20.87
2023-08-02T16:44:59.900Z,20.61
2023-08-02T16:45:59.915Z,20.50
2023-08-02T16:46:59.940Z,20.32
2023-08-02T16:48:00.204Z,20.13
2023-08-02T16:48:59.843Z,19.87
2023-08-02T16:50:00.169Z,19.59
2023-08-02T16:51:00.081Z,19.36
2023-08-02T16:52:00.056Z,19.23
2023-08-02T16:53:00.072Z,18.98
2023-08-02T16:54:01.380Z,18.67
2023-08-02T16:54:59.788Z,18.55
2023-08-02T16:55:59.992Z,18.33
2023-08-02T16:56:59.789Z,18.12